Brooklyn, IN (46111)

03:41 AM EST del 11 Febbraio 2016 (GMT -0500)
Main St. | | Change Station
CLOSE
Current Station
Stazione meteo personale
Location: Brooklyn, IN
Altitudine: 673 ft
Stazioni meteo nelle vicinanze

Alt. 673 ft 39.54 °N, 86.37 °W | Updated 1 minute ago

Coperto
Coperto
11.0 °F
Sembra 11 °F
N
0.0
Vento Variabile Vento da Est

Oggi
Massima -- | Minima -- °F
--% Possibilità di precip.
Ieri
Massima -- | Minima -- °F
Precip. -- in
Pressione 30.18 in
Visibilità 10.0 miglia
Nuvole Alcuni 4000 ft
Coperto 12000 ft
Raffreddamento del vento 11 °F
Punto di rugiada 10 °F
Umidità 95%
Piovosità 0.00 in
Spessore del manto nevoso Non disponibile.
7:43 AM 6:16 PM
Luna crescente, 10% visible
METAR KIND 110754Z 28003KT 10SM FEW040 OVC120 M11/M14 A3014 RMK AO2 SLP220 T11061144
Pressione 30.18 in
Visibilità 10.0 miglia
Nuvole Alcuni 4000 ft
Coperto 12000 ft
Raffreddamento del vento 11 °F
Punto di rugiada 10 °F
Umidità 95%
Piovosità 0.00 in
Spessore del manto nevoso Non disponibile.
7:43 AM 6:16 PM
Luna crescente, 10% visible
METAR KIND 110754Z 28003KT 10SM FEW040 OVC120 M11/M14 A3014 RMK AO2 SLP220 T11061144

10-Day Weather Forecast

Almanac

Astronomia

Feb. 11, 2016 Alba Tramonto
Ora attuale
Crepuscolo civile
Crepuscolo nautico
Crepuscolo astronomico
Luna
Estensione della luce visibile
Lunghezza del giorno
Tomorrow will be .
, % of the Moon is Illuminated

Gli estremi di oggi

State Highs State Lows

Community

WunderPhotos

Upload Photos

1,892,030 foto caricate!

WunderBlog® & News

Nearby

Qualità dell'aria

  Qualità dell'aria Indice AQ Inquinante
Not available.

Profondità neve

Stazione Profondità Altitudine

Attività sismica

Città  Distanza Mag. Data & Ora
Minimo Magnitudo Mostrato è 2.5.

Temperature delle acque costiere

Località Temperatura

Stations

Stazioni meteo nelle vicinanze

Ubicazione della stazione Temp. Raffreddamento del vento Punto di rugiada Umidità Vento Precip. Alt. Aggiornato Tipo
                   

Watches & Warnings

There are currently no watches in effect.